createdAt,value
2023-04-17T00:01:51.011Z,63.50
2023-04-17T00:04:17.751Z,63.50
2023-04-17T00:06:44.338Z,63.60
2023-04-17T00:09:10.992Z,63.50
2023-04-17T00:11:37.649Z,63.60
2023-04-17T00:14:04.123Z,63.50
2023-04-17T00:16:30.657Z,63.60
2023-04-17T00:18:57.196Z,63.60
2023-04-17T00:21:23.662Z,63.90
2023-04-17T00:23:50.127Z,63.60
2023-04-17T00:26:16.628Z,63.50
2023-04-17T00:28:43.770Z,63.50
2023-04-17T00:31:10.265Z,63.50
2023-04-17T00:33:36.735Z,63.50
2023-04-17T00:36:03.209Z,63.40
2023-04-17T00:38:31.758Z,63.30
2023-04-17T00:40:58.275Z,63.40
2023-04-17T00:43:24.783Z,63.50
2023-04-17T00:45:51.293Z,63.40
2023-04-17T00:48:17.830Z,63.40
2023-04-17T00:50:44.301Z,63.20
2023-04-17T00:53:10.777Z,63.50
2023-04-17T00:55:37.292Z,63.50
2023-04-17T00:58:03.787Z,63.40
2023-04-17T01:00:30.265Z,63.50
2023-04-17T01:02:56.885Z,64.10
2023-04-17T01:05:23.508Z,63.40
2023-04-17T01:07:49.979Z,63.20
2023-04-17T01:10:16.426Z,63.30
2023-04-17T01:12:42.910Z,63.30
2023-04-17T01:15:09.371Z,63.40
2023-04-17T01:17:35.863Z,63.40
2023-04-17T01:20:02.359Z,63.40
2023-04-17T01:22:28.837Z,64.30
2023-04-17T01:24:55.309Z,63.60
2023-04-17T01:27:21.790Z,63.50
2023-04-17T01:29:48.361Z,63.50
2023-04-17T01:32:14.823Z,63.50
2023-04-17T01:34:43.797Z,63.40
2023-04-17T01:37:10.253Z,63.40
2023-04-17T01:39:36.736Z,63.40
2023-04-17T01:42:03.263Z,63.40
2023-04-17T01:44:29.753Z,63.40
2023-04-17T01:46:56.213Z,63.20
2023-04-17T01:49:22.673Z,63.40
2023-04-17T01:51:49.144Z,63.50
2023-04-17T01:54:15.744Z,64.10
2023-04-17T01:56:42.228Z,63.20
2023-04-17T01:59:08.710Z,63.20
2023-04-17T02:01:37.785Z,63.40
2023-04-17T02:04:04.330Z,63.30
2023-04-17T02:06:30.919Z,63.20
2023-04-17T02:08:57.373Z,63.10
2023-04-17T02:11:25.786Z,63.20
2023-04-17T02:13:52.248Z,63.10
2023-04-17T02:16:18.754Z,63.00
2023-04-17T02:18:45.255Z,63.20
2023-04-17T02:21:11.721Z,63.20
2023-04-17T02:23:38.205Z,63.20
2023-04-17T02:26:04.748Z,63.10
2023-04-17T02:28:31.228Z,63.20
2023-04-17T02:30:57.737Z,63.10
2023-04-17T02:33:24.304Z,63.10
2023-04-17T02:35:50.781Z,63.10
2023-04-17T02:38:17.257Z,63.10
2023-04-17T02:40:43.734Z,63.00
2023-04-17T02:43:10.207Z,62.90
2023-04-17T02:45:36.716Z,63.00
2023-04-17T02:48:03.196Z,63.00
2023-04-17T02:50:29.719Z,63.00
2023-04-17T02:52:56.198Z,63.10
2023-04-17T02:55:22.682Z,63.00
2023-04-17T02:57:49.152Z,63.00
2023-04-17T03:00:15.619Z,62.90
2023-04-17T03:02:42.232Z,63.20
2023-04-17T03:05:08.785Z,62.90
2023-04-17T03:07:35.262Z,62.90
2023-04-17T03:10:01.757Z,63.00
2023-04-17T03:12:28.214Z,62.80
2023-04-17T03:14:54.715Z,63.00
2023-04-17T03:17:25.976Z,63.10
2023-04-17T03:19:52.475Z,62.90
2023-04-17T03:22:18.945Z,62.70
2023-04-17T03:24:45.445Z,62.70
2023-04-17T03:27:11.942Z,62.80
2023-04-17T03:29:38.452Z,62.90
2023-04-17T03:32:04.993Z,62.90
2023-04-17T03:34:31.904Z,63.00
2023-04-17T03:36:58.368Z,62.90
2023-04-17T03:39:24.858Z,62.80
2023-04-17T03:41:51.342Z,62.70
2023-04-17T03:44:17.822Z,62.90
2023-04-17T03:46:44.283Z,63.00
2023-04-17T03:49:10.892Z,63.10
2023-04-17T03:51:37.574Z,62.80
2023-04-17T03:54:04.067Z,62.70
2023-04-17T03:56:30.523Z,63.00
2023-04-17T03:58:56.999Z,62.90
2023-04-17T04:01:23.476Z,62.70
2023-04-17T04:03:50.208Z,62.80
2023-04-17T04:06:16.827Z,62.80
2023-04-17T04:08:43.299Z,62.80
2023-04-17T04:11:09.770Z,62.90
2023-04-17T04:13:36.267Z,62.80
2023-04-17T04:16:02.790Z,62.70
2023-04-17T04:18:29.256Z,62.70
2023-04-17T04:20:55.715Z,62.50
2023-04-17T04:23:22.180Z,62.60
2023-04-17T04:25:48.638Z,62.50
2023-04-17T04:28:15.108Z,62.50
2023-04-17T04:30:41.589Z,62.50
2023-04-17T04:33:08.270Z,62.50
2023-04-17T04:35:34.781Z,62.50
2023-04-17T04:38:01.253Z,62.60
2023-04-17T04:40:27.799Z,62.60
2023-04-17T04:42:54.292Z,62.50
2023-04-17T04:45:20.777Z,62.60
2023-04-17T04:47:47.334Z,62.60
2023-04-17T04:50:13.844Z,62.40
2023-04-17T04:52:40.308Z,62.60
2023-04-17T04:55:06.772Z,62.60
2023-04-17T04:57:33.261Z,62.40
2023-04-17T04:59:59.752Z,62.30
2023-04-17T05:02:26.414Z,62.60
2023-04-17T05:04:53.175Z,62.40
2023-04-17T05:07:19.762Z,62.20
2023-04-17T05:09:49.984Z,62.20
2023-04-17T05:12:16.466Z,62.40
2023-04-17T05:14:42.959Z,62.30
2023-04-17T05:17:09.431Z,62.30
2023-04-17T05:19:35.899Z,62.40
2023-04-17T05:22:02.370Z,62.10
2023-04-17T05:24:28.834Z,62.30
2023-04-17T05:26:55.308Z,62.30
2023-04-17T05:29:21.773Z,62.30
2023-04-17T05:31:48.261Z,62.30
2023-04-17T05:34:14.736Z,62.10
2023-04-17T05:36:41.201Z,62.20
2023-04-17T05:39:07.674Z,62.30
2023-04-17T05:41:34.154Z,62.10
2023-04-17T05:44:00.684Z,62.00
2023-04-17T05:46:27.223Z,62.30
2023-04-17T05:48:53.733Z,62.30
2023-04-17T05:51:20.240Z,62.30
2023-04-17T05:53:46.735Z,62.20
2023-04-17T05:56:13.240Z,62.00
2023-04-17T05:58:39.721Z,62.20
2023-04-17T06:01:06.232Z,62.10
2023-04-17T06:03:33.172Z,62.20
2023-04-17T06:06:00.020Z,62.00
2023-04-17T06:08:26.532Z,62.10
2023-04-17T06:10:53.005Z,62.10
2023-04-17T06:13:20.037Z,62.10
2023-04-17T06:15:46.494Z,62.20
2023-04-17T06:18:13.043Z,62.40
2023-04-17T06:20:40.251Z,62.10
2023-04-17T06:23:07.808Z,62.10
2023-04-17T06:25:34.288Z,62.10
2023-04-17T06:28:00.779Z,62.10
2023-04-17T06:30:27.303Z,62.00
2023-04-17T06:32:53.928Z,62.10
2023-04-17T06:35:20.447Z,62.10
2023-04-17T06:37:46.919Z,62.30
2023-04-17T06:40:13.386Z,62.30
2023-04-17T06:42:39.854Z,62.40
2023-04-17T06:45:06.479Z,62.30
2023-04-17T06:47:33.058Z,62.30
2023-04-17T06:49:59.590Z,62.00
2023-04-17T06:52:26.060Z,61.90
2023-04-17T06:54:56.217Z,61.90
2023-04-17T06:57:22.700Z,61.90
2023-04-17T06:59:49.176Z,61.90
2023-04-17T07:02:15.812Z,62.10
2023-04-17T07:04:42.455Z,61.90
2023-04-17T07:07:08.934Z,62.00
2023-04-17T07:09:35.412Z,62.10
2023-04-17T07:12:01.887Z,62.00
2023-04-17T07:14:28.368Z,62.10
2023-04-17T07:16:54.946Z,62.10
2023-04-17T07:19:21.441Z,61.90
2023-04-17T07:21:47.949Z,62.00
2023-04-17T07:24:14.431Z,61.80
2023-04-17T07:26:40.935Z,61.60
2023-04-17T07:29:07.380Z,61.70
2023-04-17T07:31:33.867Z,61.90
2023-04-17T07:34:00.407Z,62.00
2023-04-17T07:36:26.870Z,62.50
2023-04-17T07:38:53.346Z,62.10
2023-04-17T07:41:19.832Z,62.00
2023-04-17T07:43:46.330Z,62.10
2023-04-17T07:46:12.789Z,62.10
2023-04-17T07:48:39.265Z,62.10
2023-04-17T07:51:05.747Z,61.90
2023-04-17T07:53:32.281Z,61.90
2023-04-17T07:55:58.769Z,62.10
2023-04-17T07:58:25.241Z,61.90
2023-04-17T08:00:51.692Z,62.00
2023-04-17T08:03:18.290Z,61.80
2023-04-17T08:05:44.890Z,62.10
2023-04-17T08:08:11.392Z,62.30
2023-04-17T08:10:37.929Z,62.10
2023-04-17T08:13:04.413Z,62.20
2023-04-17T08:15:30.876Z,62.30
2023-04-17T08:17:57.370Z,62.00
2023-04-17T08:20:23.943Z,62.20
2023-04-17T08:22:50.455Z,62.10
2023-04-17T08:25:17.047Z,62.10
2023-04-17T08:27:43.542Z,62.20
2023-04-17T08:30:12.569Z,62.20
2023-04-17T08:32:40.057Z,62.30
2023-04-17T08:35:06.594Z,62.20
2023-04-17T08:37:33.114Z,62.30
2023-04-17T08:39:59.591Z,62.30
2023-04-17T08:42:26.082Z,62.10
2023-04-17T08:44:52.544Z,62.30
2023-04-17T08:47:19.123Z,62.30
2023-04-17T08:49:45.642Z,62.20
2023-04-17T08:52:12.187Z,62.00
2023-04-17T08:54:38.718Z,62.10
2023-04-17T08:57:05.226Z,62.10
2023-04-17T08:59:31.712Z,62.10
2023-04-17T09:01:58.255Z,62.10
2023-04-17T09:04:24.989Z,62.00
2023-04-17T09:06:51.594Z,62.10
2023-04-17T09:09:18.073Z,61.90
2023-04-17T09:11:44.567Z,61.90
2023-04-17T09:14:11.043Z,61.90
2023-04-17T09:16:37.557Z,62.00
2023-04-17T09:19:04.034Z,62.10
2023-04-17T09:21:30.520Z,62.00
2023-04-17T09:23:56.999Z,62.00
2023-04-17T09:26:23.462Z,62.00
2023-04-17T09:28:49.949Z,62.00
2023-04-17T09:31:16.537Z,61.90
2023-04-17T09:33:43.043Z,61.80
2023-04-17T09:36:09.518Z,61.90
2023-04-17T09:38:35.995Z,62.00
2023-04-17T09:41:02.461Z,62.00
2023-04-17T09:43:28.958Z,62.00
2023-04-17T09:45:55.428Z,62.00
2023-04-17T09:48:21.938Z,62.00
2023-04-17T09:50:48.409Z,61.90
2023-04-17T09:53:14.898Z,62.00
2023-04-17T09:55:41.351Z,61.90
2023-04-17T09:58:07.852Z,61.80
2023-04-17T10:00:34.395Z,61.80
2023-04-17T10:03:01.136Z,61.80
2023-04-17T10:05:27.723Z,61.90
2023-04-17T10:07:54.210Z,61.80
2023-04-17T10:10:20.715Z,61.80
2023-04-17T10:12:47.172Z,61.70
2023-04-17T10:15:13.633Z,61.80
2023-04-17T10:17:40.169Z,61.90
2023-04-17T10:20:06.668Z,61.80
2023-04-17T10:22:33.128Z,61.80
2023-04-17T10:24:59.585Z,61.90
2023-04-17T10:27:26.080Z,61.80
2023-04-17T10:29:52.613Z,61.60
2023-04-17T10:32:19.166Z,61.80
2023-04-17T10:34:45.696Z,61.90
2023-04-17T10:37:12.186Z,61.90
2023-04-17T10:39:38.648Z,61.70
2023-04-17T10:42:05.113Z,61.80
2023-04-17T10:44:31.645Z,61.80
2023-04-17T10:46:58.127Z,61.70
2023-04-17T10:49:24.626Z,61.70
2023-04-17T10:51:51.091Z,61.80
2023-04-17T10:54:17.559Z,61.80
2023-04-17T10:56:44.017Z,61.80
2023-04-17T10:59:12.146Z,61.60
2023-04-17T11:01:38.928Z,61.60
2023-04-17T11:04:05.501Z,61.50
2023-04-17T11:06:31.996Z,61.50
2023-04-17T11:08:58.532Z,61.60
2023-04-17T11:11:40.076Z,61.70
2023-04-17T11:14:12.150Z,61.40
2023-04-17T11:16:40.584Z,61.50
2023-04-17T11:19:07.125Z,61.50
2023-04-17T11:21:33.588Z,61.40
2023-04-17T11:24:00.063Z,61.40
2023-04-17T11:26:26.538Z,61.30
2023-04-17T11:28:53.000Z,61.30
2023-04-17T11:31:21.001Z,61.20
2023-04-17T11:33:48.088Z,61.20
2023-04-17T11:36:14.564Z,61.20
2023-04-17T11:38:41.033Z,61.30
2023-04-17T11:41:07.538Z,61.30
2023-04-17T11:43:34.024Z,61.20
2023-04-17T11:46:00.545Z,61.30
2023-04-17T11:48:27.062Z,61.20
2023-04-17T11:50:53.586Z,61.10
2023-04-17T11:53:20.103Z,61.20
2023-04-17T11:55:46.671Z,61.10
2023-04-17T11:58:13.201Z,61.00
2023-04-17T12:00:39.680Z,60.90
2023-04-17T12:03:06.199Z,60.90
2023-04-17T12:05:32.793Z,61.00
2023-04-17T12:07:59.292Z,61.00
2023-04-17T12:10:25.786Z,61.00
2023-04-17T12:12:52.267Z,60.90
2023-04-17T12:15:18.770Z,60.90
2023-04-17T12:17:45.258Z,60.80
2023-04-17T12:20:11.783Z,61.70
2023-04-17T12:22:38.261Z,60.90
2023-04-17T12:25:08.335Z,60.90
2023-04-17T12:27:34.811Z,60.90
2023-04-17T12:30:01.325Z,61.00
2023-04-17T12:32:27.839Z,60.90
2023-04-17T12:34:54.312Z,60.90
2023-04-17T12:37:20.778Z,60.90
2023-04-17T12:39:47.278Z,60.90
2023-04-17T12:42:13.855Z,60.80
2023-04-17T12:44:40.372Z,60.90
2023-04-17T12:47:06.823Z,60.70
2023-04-17T12:49:33.306Z,60.90
2023-04-17T12:52:02.446Z,60.80
2023-04-17T12:54:29.832Z,60.70
2023-04-17T12:56:56.321Z,60.80
2023-04-17T12:59:22.770Z,61.60
2023-04-17T13:01:49.257Z,60.90
2023-04-17T13:04:16.217Z,60.80
2023-04-17T13:06:43.081Z,61.00
2023-04-17T13:09:09.550Z,60.70
2023-04-17T13:11:36.066Z,60.70
2023-04-17T13:14:02.538Z,60.70
2023-04-17T13:16:29.086Z,60.70
2023-04-17T13:18:58.414Z,60.80
2023-04-17T13:21:24.897Z,60.70
2023-04-17T13:23:51.362Z,60.60
2023-04-17T13:26:17.837Z,60.70
2023-04-17T13:28:44.286Z,60.70
2023-04-17T13:31:10.846Z,60.80
2023-04-17T13:33:37.367Z,60.40
2023-04-17T13:36:03.878Z,60.60
2023-04-17T13:38:30.395Z,60.70
2023-04-17T13:40:56.895Z,60.50
2023-04-17T13:43:23.373Z,60.40
2023-04-17T13:45:49.973Z,60.60
2023-04-17T13:48:16.546Z,60.60
2023-04-17T13:50:43.047Z,60.50
2023-04-17T13:53:11.104Z,60.40
2023-04-17T13:55:37.751Z,60.50
2023-04-17T13:58:04.227Z,60.40
2023-04-17T14:00:30.735Z,60.40
2023-04-17T14:02:57.330Z,60.40
2023-04-17T14:05:23.894Z,60.30
2023-04-17T14:07:50.387Z,60.40
2023-04-17T14:10:17.018Z,60.30
2023-04-17T14:12:43.500Z,60.40
2023-04-17T14:15:09.980Z,60.00
2023-04-17T14:17:36.510Z,60.10
2023-04-17T14:20:03.145Z,60.00
2023-04-17T14:22:29.664Z,59.90
2023-04-17T14:24:56.145Z,59.70
2023-04-17T14:27:22.637Z,59.80
2023-04-17T14:29:49.122Z,59.70
2023-04-17T14:32:15.581Z,59.70
2023-04-17T14:34:42.056Z,59.50
2023-04-17T14:37:08.635Z,59.40
2023-04-17T14:39:35.100Z,59.40
2023-04-17T14:42:02.287Z,59.50
2023-04-17T14:44:29.031Z,59.50
2023-04-17T14:46:55.573Z,59.30
2023-04-17T14:49:22.126Z,59.20
2023-04-17T14:51:48.656Z,59.00
2023-04-17T14:54:20.548Z,58.90
2023-04-17T14:56:47.133Z,59.20
2023-04-17T14:59:13.964Z,59.20
2023-04-17T15:01:40.746Z,59.20
2023-04-17T15:04:07.463Z,59.20
2023-04-17T15:06:34.162Z,59.10
2023-04-17T15:09:00.648Z,58.90
2023-04-17T15:11:27.125Z,58.90
2023-04-17T15:13:53.600Z,58.90
2023-04-17T15:16:20.119Z,58.90
2023-04-17T15:18:46.666Z,58.90
2023-04-17T15:21:13.162Z,58.70
2023-04-17T15:23:39.622Z,58.60
2023-04-17T15:26:06.089Z,58.50
2023-04-17T15:28:32.560Z,58.60
2023-04-17T15:30:59.051Z,58.40
2023-04-17T15:33:25.541Z,58.40
2023-04-17T15:35:52.029Z,58.30
2023-04-17T15:38:18.518Z,58.10
2023-04-17T15:40:44.979Z,57.90
2023-04-17T15:43:11.461Z,58.10
2023-04-17T15:45:38.011Z,57.90
2023-04-17T15:48:04.608Z,57.90
2023-04-17T15:50:31.134Z,57.80
2023-04-17T15:52:57.626Z,58.00
2023-04-17T15:55:24.097Z,57.80
2023-04-17T15:57:50.592Z,57.80
2023-04-17T16:00:17.057Z,57.90
2023-04-17T16:02:43.662Z,57.80
2023-04-17T16:05:10.257Z,57.80
2023-04-17T16:07:36.757Z,57.80
2023-04-17T16:10:03.210Z,58.00
2023-04-17T16:12:29.688Z,57.90
2023-04-17T16:14:56.151Z,57.40
2023-04-17T16:17:22.717Z,57.70
2023-04-17T16:19:50.735Z,57.30
2023-04-17T16:22:17.426Z,57.40
2023-04-17T16:24:43.936Z,57.60
2023-04-17T16:27:10.410Z,57.50
2023-04-17T16:29:36.886Z,57.40
2023-04-17T16:32:03.385Z,57.40
2023-04-17T16:34:29.889Z,57.40
2023-04-17T16:36:56.372Z,57.40
2023-04-17T16:39:22.848Z,57.50
2023-04-17T16:41:49.301Z,57.20
2023-04-17T16:44:15.770Z,57.20
2023-04-17T16:47:03.125Z,57.20
2023-04-17T16:49:28.696Z,57.10
2023-04-17T16:51:55.169Z,57.10
2023-04-17T16:54:21.686Z,57.40
2023-04-17T16:56:48.171Z,57.30
2023-04-17T16:59:14.844Z,57.00
2023-04-17T17:01:41.454Z,57.30
2023-04-17T17:04:07.992Z,57.00
2023-04-17T17:06:34.524Z,57.00
2023-04-17T17:09:01.065Z,57.40
2023-04-17T17:11:27.554Z,57.30
2023-04-17T17:13:54.034Z,57.30
2023-04-17T17:16:20.563Z,57.30
2023-04-17T17:18:47.188Z,57.00
2023-04-17T17:21:13.658Z,56.90
2023-04-17T17:23:40.138Z,57.20
2023-04-17T17:26:06.613Z,57.20
2023-04-17T17:28:33.115Z,57.20
2023-04-17T17:30:59.580Z,57.10
2023-04-17T17:33:26.066Z,57.70
2023-04-17T17:35:52.563Z,57.30
2023-04-17T17:38:19.060Z,57.20
2023-04-17T17:40:45.531Z,57.50
2023-04-17T17:43:12.014Z,57.50
2023-04-17T17:45:38.497Z,56.90
2023-04-17T17:48:05.008Z,57.30
2023-04-17T17:50:31.486Z,57.20
2023-04-17T17:52:58.953Z,57.30
2023-04-17T17:55:25.613Z,57.50
2023-04-17T17:57:52.104Z,57.50
2023-04-17T18:00:18.675Z,57.50
2023-04-17T18:02:45.273Z,57.50
2023-04-17T18:05:11.916Z,57.60
2023-04-17T18:07:38.382Z,57.60
2023-04-17T18:10:04.871Z,57.70
2023-04-17T18:12:31.336Z,57.70
2023-04-17T18:14:57.826Z,57.50
2023-04-17T18:17:24.318Z,57.50
2023-04-17T18:19:50.833Z,57.70
2023-04-17T18:22:17.334Z,57.80
2023-04-17T18:24:43.833Z,57.60
2023-04-17T18:27:10.320Z,57.80
2023-04-17T18:29:36.799Z,57.70
2023-04-17T18:32:03.721Z,57.90
2023-04-17T18:34:30.287Z,57.90
2023-04-17T18:36:57.889Z,58.00
2023-04-17T18:39:24.375Z,57.90
2023-04-17T18:41:50.841Z,58.00
2023-04-17T18:44:17.312Z,58.10
2023-04-17T18:46:43.821Z,58.10
2023-04-17T18:49:10.316Z,57.90
2023-04-17T18:51:36.797Z,58.00
2023-04-17T18:54:03.266Z,58.10
2023-04-17T18:56:29.706Z,58.20
2023-04-17T18:58:56.205Z,58.10
2023-04-17T19:01:22.893Z,58.10
2023-04-17T19:03:49.496Z,58.10
2023-04-17T19:06:15.982Z,58.10
2023-04-17T19:08:42.520Z,58.10
2023-04-17T19:11:09.020Z,58.10
2023-04-17T19:13:35.502Z,58.00
2023-04-17T19:16:02.051Z,58.30
2023-04-17T19:18:28.532Z,58.10
2023-04-17T19:20:55.000Z,58.10
2023-04-17T19:23:21.476Z,58.00
2023-04-17T19:25:47.934Z,58.20
2023-04-17T19:28:14.415Z,58.20
2023-04-17T19:30:40.896Z,57.90
2023-04-17T19:33:07.398Z,58.10
2023-04-17T19:35:33.907Z,58.10
2023-04-17T19:38:00.361Z,58.10
2023-04-17T19:40:26.849Z,58.10
2023-04-17T19:42:53.306Z,58.00
2023-04-17T19:45:19.824Z,58.00
2023-04-17T19:47:46.347Z,58.00
2023-04-17T19:50:12.851Z,58.00
2023-04-17T19:52:39.313Z,57.90
2023-04-17T19:55:05.801Z,58.10
2023-04-17T19:57:32.257Z,58.10
2023-04-17T19:59:58.730Z,57.90
2023-04-17T20:02:25.323Z,57.80
2023-04-17T20:04:51.868Z,57.90
2023-04-17T20:07:18.347Z,57.90
2023-04-17T20:09:44.822Z,57.80
2023-04-17T20:12:11.318Z,57.90
2023-04-17T20:14:37.788Z,57.90
2023-04-17T20:17:04.395Z,57.80
2023-04-17T20:19:30.906Z,57.90
2023-04-17T20:21:57.382Z,57.70
2023-04-17T20:24:23.858Z,57.90
2023-04-17T20:26:50.338Z,57.80
2023-04-17T20:29:16.835Z,57.90
2023-04-17T20:31:43.386Z,57.90
2023-04-17T20:34:09.889Z,57.80
2023-04-17T20:36:36.337Z,57.80
2023-04-17T20:39:02.790Z,57.80
2023-04-17T20:41:29.260Z,57.80
2023-04-17T20:43:55.736Z,57.60
2023-04-17T20:46:22.276Z,57.70
2023-04-17T20:48:48.769Z,57.70
2023-04-17T20:51:15.246Z,57.70
2023-04-17T20:53:41.718Z,57.70
2023-04-17T20:56:08.184Z,57.50
2023-04-17T20:58:34.649Z,57.80
2023-04-17T21:01:01.851Z,57.60
2023-04-17T21:03:28.583Z,57.60
2023-04-17T21:05:55.117Z,57.50
2023-04-17T21:08:21.565Z,57.40
2023-04-17T21:10:48.029Z,57.50
2023-04-17T21:13:14.521Z,57.40
2023-04-17T21:15:41.002Z,57.40
2023-04-17T21:18:07.524Z,57.40
2023-04-17T21:20:34.007Z,58.10
2023-04-17T21:23:00.469Z,57.30
2023-04-17T21:25:26.951Z,57.20
2023-04-17T21:27:53.405Z,57.20
2023-04-17T21:30:19.910Z,57.20
2023-04-17T21:32:46.450Z,57.20
2023-04-17T21:35:12.949Z,57.20
2023-04-17T21:37:39.428Z,57.30
2023-04-17T21:40:06.002Z,57.20
2023-04-17T21:42:32.499Z,57.10
2023-04-17T21:44:59.004Z,57.10
2023-04-17T21:47:25.514Z,57.10
2023-04-17T21:49:52.045Z,57.00
2023-04-17T21:52:18.509Z,57.00
2023-04-17T21:54:44.978Z,57.00
2023-04-17T21:57:11.456Z,57.00
2023-04-17T21:59:37.928Z,56.90
2023-04-17T22:02:04.436Z,56.90
2023-04-17T22:04:31.023Z,56.90
2023-04-17T22:06:57.524Z,56.90
2023-04-17T22:09:24.007Z,56.90
2023-04-17T22:11:50.492Z,56.80
2023-04-17T22:14:16.967Z,56.70
2023-04-17T22:16:43.558Z,56.70
2023-04-17T22:19:10.064Z,56.80
2023-04-17T22:21:36.546Z,56.70
2023-04-17T22:24:03.001Z,56.80
2023-04-17T22:26:29.471Z,56.70
2023-04-17T22:28:55.942Z,56.60
2023-04-17T22:31:22.448Z,56.60
2023-04-17T22:33:49.001Z,56.60
2023-04-17T22:36:15.464Z,56.60
2023-04-17T22:38:41.934Z,56.60
2023-04-17T22:41:08.399Z,56.50
2023-04-17T22:43:34.880Z,56.50
2023-04-17T22:46:01.411Z,56.50
2023-04-17T22:48:27.873Z,56.50
2023-04-17T22:50:54.369Z,56.50
2023-04-17T22:53:20.841Z,56.50
2023-04-17T22:55:47.334Z,56.40
2023-04-17T22:58:13.810Z,56.50
2023-04-17T23:00:40.293Z,56.50
2023-04-17T23:03:06.896Z,56.30
2023-04-17T23:05:33.424Z,56.30
2023-04-17T23:07:59.899Z,56.40
2023-04-17T23:10:26.398Z,56.40
2023-04-17T23:12:52.871Z,56.30
2023-04-17T23:15:19.352Z,55.90
2023-04-17T23:17:45.861Z,56.10
2023-04-17T23:20:12.381Z,56.00
2023-04-17T23:22:38.956Z,55.60
2023-04-17T23:25:05.508Z,55.80
2023-04-17T23:27:31.990Z,56.00
2023-04-17T23:29:58.457Z,56.00
2023-04-17T23:32:24.933Z,56.00
2023-04-17T23:34:51.417Z,55.50
2023-04-17T23:37:17.903Z,55.80
2023-04-17T23:39:44.380Z,55.90
2023-04-17T23:42:10.798Z,55.90
2023-04-17T23:44:37.293Z,55.70
2023-04-17T23:47:03.963Z,55.70
2023-04-17T23:49:30.479Z,55.70
2023-04-17T23:51:56.959Z,55.50
2023-04-17T23:54:23.439Z,55.50
2023-04-17T23:56:49.920Z,55.50
2023-04-17T23:59:16.404Z,55.50
